Greenslough, Ireland
Current Conditions -  °F | °C
As of 2:00 PM on Thursday 29 Jan 2015 (Local Time) from EIDL Reporting Station
Few Clouds Few Clouds  
Wind Chill: 28°   Ceiling: Unl
Heat Index: 39°   Visibility: 6mi
Dew Point: 34°   Wind: 24mph
Humidity: 81%   Direction: 310°NW
Pressure: 29"   Gusts: NA
Location:  55.12°N, 7.9°W
Report Text: EIDL 291400Z 31021KT 9999 FEW013 04/01 Q0982
Loading
Personal Weather Stations






























Interactive Weather Map New forecast layout! Learn more

10-Day Weather Forecast

Advertisements
Track Severe Weather on mobile